sensor_id;sensor_type;location;lat;lon;timestamp;temperature;humidity
2993;DHT22;1506;48.932;9.478;2022-09-09T03:05:26;13.90;99.90
2993;DHT22;1506;48.932;9.478;2022-09-09T03:07:54;13.50;99.90
2993;DHT22;1506;48.932;9.478;2022-09-09T03:10:21;13.50;99.90
2993;DHT22;1506;48.932;9.478;2022-09-09T03:12:48;13.50;99.90
2993;DHT22;1506;48.932;9.478;2022-09-09T03:15:16;13.40;99.90
2993;DHT22;1506;48.932;9.478;2022-09-09T03:17:43;13.30;99.90
2993;DHT22;1506;48.932;9.478;2022-09-09T03:20:10;13.10;99.90
2993;DHT22;1506;48.932;9.478;2022-09-09T03:22:38;13.10;99.90
2993;DHT22;1506;48.932;9.478;2022-09-09T03:25:07;13.00;99.90
2993;DHT22;1506;48.932;9.478;2022-09-09T03:27:35;12.90;99.90
2993;DHT22;1506;48.932;9.478;2022-09-09T03:30:03;12.70;99.90
2993;DHT22;1506;48.932;9.478;2022-09-09T03:32:31;12.60;99.90
2993;DHT22;1506;48.932;9.478;2022-09-09T03:34:58;12.60;99.90
2993;DHT22;1506;48.932;9.478;2022-09-09T03:37:26;12.50;99.90
2993;DHT22;1506;48.932;9.478;2022-09-09T03:39:53;12.30;99.90
2993;DHT22;1506;48.932;9.478;2022-09-09T03:42:22;12.20;99.90
2993;DHT22;1506;48.932;9.478;2022-09-09T03:44:52;12.20;99.90
2993;DHT22;1506;48.932;9.478;2022-09-09T03:47:22;12.30;99.90
2993;DHT22;1506;48.932;9.478;2022-09-09T03:49:53;12.40;99.90
2993;DHT22;1506;48.932;9.478;2022-09-09T03:52:20;12.40;99.90
2993;DHT22;1506;48.932;9.478;2022-09-09T03:54:51;12.40;99.90
2993;DHT22;1506;48.932;9.478;2022-09-09T03:57:20;12.50;99.90
2993;DHT22;1506;48.932;9.478;2022-09-09T03:59:47;12.60;99.90
2993;DHT22;1506;48.932;9.478;2022-09-09T04:02:15;12.90;99.90
2993;DHT22;1506;48.932;9.478;2022-09-09T04:04:42;13.00;99.90
2993;DHT22;1506;48.932;9.478;2022-09-09T04:07:09;13.00;99.90
2993;DHT22;1506;48.932;9.478;2022-09-09T04:09:36;13.00;99.90
2993;DHT22;1506;48.932;9.478;2022-09-09T04:12:03;13.20;99.90
2993;DHT22;1506;48.932;9.478;2022-09-09T04:14:31;13.20;99.90
2993;DHT22;1506;48.932;9.478;2022-09-09T04:16:58;13.40;99.90
2993;DHT22;1506;48.932;9.478;2022-09-09T04:19:26;13.40;99.90
2993;DHT22;1506;48.932;9.478;2022-09-09T04:21:53;13.40;99.90
2993;DHT22;1506;48.932;9.478;2022-09-09T04:24:21;13.20;99.90
2993;DHT22;1506;48.932;9.478;2022-09-09T04:26:49;13.10;99.90
2993;DHT22;1506;48.932;9.478;2022-09-09T04:29:16;13.00;99.90
2993;DHT22;1506;48.932;9.478;2022-09-09T04:31:43;13.10;99.90
2993;DHT22;1506;48.932;9.478;2022-09-09T04:34:12;13.10;99.90
2993;DHT22;1506;48.932;9.478;2022-09-09T04:36:39;13.10;99.90
2993;DHT22;1506;48.932;9.478;2022-09-09T04:39:08;13.00;99.90
2993;DHT22;1506;48.932;9.478;2022-09-09T04:41:35;13.00;99.90
2993;DHT22;1506;48.932;9.478;2022-09-09T04:44:02;13.00;99.90
2993;DHT22;1506;48.932;9.478;2022-09-09T04:46:31;13.00;99.90
2993;DHT22;1506;48.932;9.478;2022-09-09T04:49:00;13.00;99.90
2993;DHT22;1506;48.932;9.478;2022-09-09T04:51:30;13.10;99.90
2993;DHT22;1506;48.932;9.478;2022-09-09T04:53:58;13.20;99.90
2993;DHT22;1506;48.932;9.478;2022-09-09T04:56:25;13.30;99.90
2993;DHT22;1506;48.932;9.478;2022-09-09T04:58:56;13.40;99.90
2993;DHT22;1506;48.932;9.478;2022-09-09T05:01:34;13.40;99.90
2993;DHT22;1506;48.932;9.478;2022-09-09T05:04:03;13.50;99.90
2993;DHT22;1506;48.932;9.478;2022-09-09T05:06:32;13.20;98.70
2993;DHT22;1506;48.932;9.478;2022-09-09T05:09:00;13.10;99.90
2993;DHT22;1506;48.932;9.478;2022-09-09T05:11:31;13.10;99.90
2993;DHT22;1506;48.932;9.478;2022-09-09T05:14:14;13.20;99.90
2993;DHT22;1506;48.932;9.478;2022-09-09T05:16:41;13.20;99.90
2993;DHT22;1506;48.932;9.478;2022-09-09T05:19:10;13.30;99.90
2993;DHT22;1506;48.932;9.478;2022-09-09T05:21:43;13.40;99.90
2993;DHT22;1506;48.932;9.478;2022-09-09T05:24:12;13.70;99.90
2993;DHT22;1506;48.932;9.478;2022-09-09T05:26:39;14.40;99.90
2993;DHT22;1506;48.932;9.478;2022-09-09T05:29:07;15.00;1.00
2993;DHT22;1506;48.932;9.478;2022-09-09T05:31:35;15.70;1.00
2993;DHT22;1506;48.932;9.478;2022-09-09T05:34:06;15.70;99.90
2993;DHT22;1506;48.932;9.478;2022-09-09T05:36:33;15.20;51.90
2993;DHT22;1506;48.932;9.478;2022-09-09T05:39:00;14.60;1.00
2993;DHT22;1506;48.932;9.478;2022-09-09T05:41:30;14.20;1.00
2993;DHT22;1506;48.932;9.478;2022-09-09T05:44:00;14.10;1.00
2993;DHT22;1506;48.932;9.478;2022-09-09T05:46:28;14.10;1.00
2993;DHT22;1506;48.932;9.478;2022-09-09T05:48:55;14.10;10.20
2993;DHT22;1506;48.932;9.478;2022-09-09T05:56:29;14.90;35.00
2993;DHT22;1506;48.932;9.478;2022-09-09T06:01:29;18.00;99.90
2993;DHT22;1506;48.932;9.478;2022-09-09T06:03:59;18.00;8.20
2993;DHT22;1506;48.932;9.478;2022-09-09T06:06:31;17.50;99.90
2993;DHT22;1506;48.932;9.478;2022-09-09T06:09:08;17.20;1.00
2993;DHT22;1506;48.932;9.478;2022-09-09T06:11:39;17.10;99.90
2993;DHT22;1506;48.932;9.478;2022-09-09T06:14:07;17.00;99.90
2993;DHT22;1506;48.932;9.478;2022-09-09T06:16:35;16.60;1.00
2993;DHT22;1506;48.932;9.478;2022-09-09T06:19:09;16.50;99.90
2993;DHT22;1506;48.932;9.478;2022-09-09T06:21:37;16.20;1.00
2993;DHT22;1506;48.932;9.478;2022-09-09T06:24:06;16.10;99.90
2993;DHT22;1506;48.932;9.478;2022-09-09T06:26:39;16.10;99.90
2993;DHT22;1506;48.932;9.478;2022-09-09T06:29:12;16.30;1.00
2993;DHT22;1506;48.932;9.478;2022-09-09T06:31:41;16.70;1.00
2993;DHT22;1506;48.932;9.478;2022-09-09T06:34:19;17.00;99.90
2993;DHT22;1506;48.932;9.478;2022-09-09T06:36:49;16.90;1.00
2993;DHT22;1506;48.932;9.478;2022-09-09T06:39:16;16.90;99.90
2993;DHT22;1506;48.932;9.478;2022-09-09T06:41:44;17.50;1.00
2993;DHT22;1506;48.932;9.478;2022-09-09T06:44:34;18.00;1.00
2993;DHT22;1506;48.932;9.478;2022-09-09T06:47:03;18.00;1.00
2993;DHT22;1506;48.932;9.478;2022-09-09T06:49:32;18.10;99.90
2993;DHT22;1506;48.932;9.478;2022-09-09T06:52:01;18.10;1.00
2993;DHT22;1506;48.932;9.478;2022-09-09T06:54:28;18.00;99.90
2993;DHT22;1506;48.932;9.478;2022-09-09T06:56:55;17.90;1.00
2993;DHT22;1506;48.932;9.478;2022-09-09T06:59:24;17.70;99.90
2993;DHT22;1506;48.932;9.478;2022-09-09T07:01:53;17.80;99.90
2993;DHT22;1506;48.932;9.478;2022-09-09T07:04:23;17.90;1.00
2993;DHT22;1506;48.932;9.478;2022-09-09T07:06:50;17.80;1.00
2993;DHT22;1506;48.932;9.478;2022-09-09T07:34:22;19.50;99.90
2993;DHT22;1506;48.932;9.478;2022-09-09T07:36:50;19.60;1.00
2993;DHT22;1506;48.932;9.478;2022-09-09T07:44:22;20.30;1.00
2993;DHT22;1506;48.932;9.478;2022-09-09T07:46:58;20.20;1.00
2993;DHT22;1506;48.932;9.478;2022-09-09T08:27:03;22.70;99.90
2993;DHT22;1506;48.932;9.478;2022-09-09T08:29:31;22.80;99.90
2993;DHT22;1506;48.932;9.478;2022-09-09T08:31:58;23.00;99.90
2993;DHT22;1506;48.932;9.478;2022-09-09T08:34:27;23.40;1.00
2993;DHT22;1506;48.932;9.478;2022-09-09T08:36:56;24.40;99.90
2993;DHT22;1506;48.932;9.478;2022-09-09T08:39:30;24.60;28.70
2993;DHT22;1506;48.932;9.478;2022-09-09T08:50:32;25.70;99.90
2993;DHT22;1506;48.932;9.478;2022-09-09T08:53:19;25.80;99.90
2993;DHT22;1506;48.932;9.478;2022-09-09T08:55:58;26.00;1.00
2993;DHT22;1506;48.932;9.478;2022-09-09T08:58:45;25.20;99.90
2993;DHT22;1506;48.932;9.478;2022-09-09T09:01:40;23.10;1.00
2993;DHT22;1506;48.932;9.478;2022-09-09T09:13:24;24.20;99.90
2993;DHT22;1506;48.932;9.478;2022-09-09T09:16:02;24.10;99.90
2993;DHT22;1506;48.932;9.478;2022-09-09T09:18:37;24.10;99.90
2993;DHT22;1506;48.932;9.478;2022-09-09T09:21:10;25.00;99.90
2993;DHT22;1506;48.932;9.478;2022-09-09T09:23:51;25.60;99.90
2993;DHT22;1506;48.932;9.478;2022-09-09T09:26:35;25.80;99.90
2993;DHT22;1506;48.932;9.478;2022-09-09T09:29:14;25.60;99.90
2993;DHT22;1506;48.932;9.478;2022-09-09T09:31:54;24.50;99.90
2993;DHT22;1506;48.932;9.478;2022-09-09T09:34:24;24.10;99.90
2993;DHT22;1506;48.932;9.478;2022-09-09T09:36:55;24.20;99.90
2993;DHT22;1506;48.932;9.478;2022-09-09T09:39:28;23.50;99.90
2993;DHT22;1506;48.932;9.478;2022-09-09T09:42:17;23.70;1.00
2993;DHT22;1506;48.932;9.478;2022-09-09T09:44:49;23.60;99.90
2993;DHT22;1506;48.932;9.478;2022-09-09T09:47:21;23.90;99.90
2993;DHT22;1506;48.932;9.478;2022-09-09T09:50:19;24.30;99.90
2993;DHT22;1506;48.932;9.478;2022-09-09T09:53:06;22.80;99.90
2993;DHT22;1506;48.932;9.478;2022-09-09T09:56:05;22.90;99.90
2993;DHT22;1506;48.932;9.478;2022-09-09T10:01:28;21.40;99.90
2993;DHT22;1506;48.932;9.478;2022-09-09T10:04:02;21.30;99.90
2993;DHT22;1506;48.932;9.478;2022-09-09T10:06:40;21.10;99.90
2993;DHT22;1506;48.932;9.478;2022-09-09T10:15:31;21.40;99.90
2993;DHT22;1506;48.932;9.478;2022-09-09T10:33:15;26.70;99.90
2993;DHT22;1506;48.932;9.478;2022-09-09T10:36:13;26.90;99.90
2993;DHT22;1506;48.932;9.478;2022-09-09T10:38:45;26.10;99.90
2993;DHT22;1506;48.932;9.478;2022-09-09T10:44:21;27.00;99.90
2993;DHT22;1506;48.932;9.478;2022-09-09T10:53:11;27.50;99.90
2993;DHT22;1506;48.932;9.478;2022-09-09T10:55:48;27.70;99.90
2993;DHT22;1506;48.932;9.478;2022-09-09T10:58:28;28.20;99.90
2993;DHT22;1506;48.932;9.478;2022-09-09T11:01:09;28.40;99.90
2993;DHT22;1506;48.932;9.478;2022-09-09T11:03:52;28.70;99.90
2993;DHT22;1506;48.932;9.478;2022-09-09T11:06:28;28.00;99.90
2993;DHT22;1506;48.932;9.478;2022-09-09T11:09:01;27.10;99.90
2993;DHT22;1506;48.932;9.478;2022-09-09T11:11:42;25.90;99.90
2993;DHT22;1506;48.932;9.478;2022-09-09T11:17:26;25.40;99.90
2993;DHT22;1506;48.932;9.478;2022-09-09T11:20:00;24.90;99.90
2993;DHT22;1506;48.932;9.478;2022-09-09T11:22:35;24.20;1.00
2993;DHT22;1506;48.932;9.478;2022-09-09T11:25:21;23.00;1.00
2993;DHT22;1506;48.932;9.478;2022-09-09T11:28:16;23.00;1.00
2993;DHT22;1506;48.932;9.478;2022-09-09T11:33:52;23.10;1.00
2993;DHT22;1506;48.932;9.478;2022-09-09T11:41:53;23.70;1.00
2993;DHT22;1506;48.932;9.478;2022-09-09T11:44:29;23.80;1.00
2993;DHT22;1506;48.932;9.478;2022-09-09T11:46:56;23.60;1.00
2993;DHT22;1506;48.932;9.478;2022-09-09T11:49:27;23.40;1.00
2993;DHT22;1506;48.932;9.478;2022-09-09T11:52:18;23.00;1.00
2993;DHT22;1506;48.932;9.478;2022-09-09T11:54:49;22.50;1.00
2993;DHT22;1506;48.932;9.478;2022-09-09T11:59:57;21.70;1.00
2993;DHT22;1506;48.932;9.478;2022-09-09T12:02:28;21.20;99.90
2993;DHT22;1506;48.932;9.478;2022-09-09T12:05:09;20.60;99.90
2993;DHT22;1506;48.932;9.478;2022-09-09T12:07:41;20.40;99.90
2993;DHT22;1506;48.932;9.478;2022-09-09T12:10:27;20.20;27.10
2993;DHT22;1506;48.932;9.478;2022-09-09T12:13:18;19.90;1.00
2993;DHT22;1506;48.932;9.478;2022-09-09T12:15:52;19.80;99.90
2993;DHT22;1506;48.932;9.478;2022-09-09T12:18:33;19.50;48.30
2993;DHT22;1506;48.932;9.478;2022-09-09T12:21:32;19.30;99.90
2993;DHT22;1506;48.932;9.478;2022-09-09T12:24:14;19.20;99.90
2993;DHT22;1506;48.932;9.478;2022-09-09T12:26:55;18.90;99.90
2993;DHT22;1506;48.932;9.478;2022-09-09T12:32:15;19.00;1.00
2993;DHT22;1506;48.932;9.478;2022-09-09T12:35:02;20.30;1.00
2993;DHT22;1506;48.932;9.478;2022-09-09T12:37:40;21.30;99.90
2993;DHT22;1506;48.932;9.478;2022-09-09T12:40:30;22.20;99.90
2993;DHT22;1506;48.932;9.478;2022-09-09T12:42:59;22.30;1.00
2993;DHT22;1506;48.932;9.478;2022-09-09T12:45:31;22.30;99.90
2993;DHT22;1506;48.932;9.478;2022-09-09T12:48:00;22.70;99.90
2993;DHT22;1506;48.932;9.478;2022-09-09T12:50:34;22.30;1.00
2993;DHT22;1506;48.932;9.478;2022-09-09T12:53:08;22.80;1.00
2993;DHT22;1506;48.932;9.478;2022-09-09T12:55:50;23.00;5.40
2993;DHT22;1506;48.932;9.478;2022-09-09T12:58:19;23.30;99.90
2993;DHT22;1506;48.932;9.478;2022-09-09T13:00:52;23.00;1.00
2993;DHT22;1506;48.932;9.478;2022-09-09T13:03:20;22.90;1.00
2993;DHT22;1506;48.932;9.478;2022-09-09T13:05:48;23.00;99.90
2993;DHT22;1506;48.932;9.478;2022-09-09T13:08:17;22.70;1.00
2993;DHT22;1506;48.932;9.478;2022-09-09T13:10:50;22.60;1.00
2993;DHT22;1506;48.932;9.478;2022-09-09T13:13:39;22.60;1.00
2993;DHT22;1506;48.932;9.478;2022-09-09T13:16:36;22.40;99.90
2993;DHT22;1506;48.932;9.478;2022-09-09T13:19:13;22.20;1.00
2993;DHT22;1506;48.932;9.478;2022-09-09T13:21:42;22.10;1.00
2993;DHT22;1506;48.932;9.478;2022-09-09T13:24:31;22.10;1.00
2993;DHT22;1506;48.932;9.478;2022-09-09T13:27:22;22.30;1.00
2993;DHT22;1506;48.932;9.478;2022-09-09T13:29:56;22.90;1.00
2993;DHT22;1506;48.932;9.478;2022-09-09T13:32:25;23.20;1.00
2993;DHT22;1506;48.932;9.478;2022-09-09T13:34:58;23.40;1.00
2993;DHT22;1506;48.932;9.478;2022-09-09T13:37:39;23.40;1.00
2993;DHT22;1506;48.932;9.478;2022-09-09T13:40:18;22.80;1.00
2993;DHT22;1506;48.932;9.478;2022-09-09T13:42:52;22.20;1.00
2993;DHT22;1506;48.932;9.478;2022-09-09T13:45:23;21.80;1.00
2993;DHT22;1506;48.932;9.478;2022-09-09T13:47:54;21.70;1.00
2993;DHT22;1506;48.932;9.478;2022-09-09T13:50:25;21.60;1.00
2993;DHT22;1506;48.932;9.478;2022-09-09T13:52:55;21.50;1.00
2993;DHT22;1506;48.932;9.478;2022-09-09T13:55:29;21.30;1.00
2993;DHT22;1506;48.932;9.478;2022-09-09T13:58:01;21.10;1.00
2993;DHT22;1506;48.932;9.478;2022-09-09T14:00:34;21.10;1.00
2993;DHT22;1506;48.932;9.478;2022-09-09T14:03:01;21.20;1.00
2993;DHT22;1506;48.932;9.478;2022-09-09T14:05:31;21.50;1.00
2993;DHT22;1506;48.932;9.478;2022-09-09T14:07:59;21.90;1.00
2993;DHT22;1506;48.932;9.478;2022-09-09T14:10:27;22.20;1.00
2993;DHT22;1506;48.932;9.478;2022-09-09T14:12:54;22.30;1.00
2993;DHT22;1506;48.932;9.478;2022-09-09T14:15:21;22.40;1.00
2993;DHT22;1506;48.932;9.478;2022-09-09T14:17:48;22.40;1.00
2993;DHT22;1506;48.932;9.478;2022-09-09T14:20:15;22.30;1.00
2993;DHT22;1506;48.932;9.478;2022-09-09T14:22:44;22.30;1.00
2993;DHT22;1506;48.932;9.478;2022-09-09T14:25:11;22.30;1.00
2993;DHT22;1506;48.932;9.478;2022-09-09T14:27:40;22.10;1.00
2993;DHT22;1506;48.932;9.478;2022-09-09T14:30:09;22.00;1.00
2993;DHT22;1506;48.932;9.478;2022-09-09T14:32:36;21.90;1.00
2993;DHT22;1506;48.932;9.478;2022-09-09T14:35:03;21.90;1.00
2993;DHT22;1506;48.932;9.478;2022-09-09T14:37:30;22.00;1.00
2993;DHT22;1506;48.932;9.478;2022-09-09T14:39:58;22.20;1.00
2993;DHT22;1506;48.932;9.478;2022-09-09T14:42:25;22.30;1.00
2993;DHT22;1506;48.932;9.478;2022-09-09T14:44:53;22.30;1.00
2993;DHT22;1506;48.932;9.478;2022-09-09T14:47:20;22.20;1.00
2993;DHT22;1506;48.932;9.478;2022-09-09T14:49:46;22.20;1.00
2993;DHT22;1506;48.932;9.478;2022-09-09T14:52:16;22.10;1.00
2993;DHT22;1506;48.932;9.478;2022-09-09T14:54:43;22.20;1.00
2993;DHT22;1506;48.932;9.478;2022-09-09T14:57:09;22.30;1.00
2993;DHT22;1506;48.932;9.478;2022-09-09T14:59:36;22.50;1.00
2993;DHT22;1506;48.932;9.478;2022-09-09T15:02:03;22.60;1.00
2993;DHT22;1506;48.932;9.478;2022-09-09T15:04:31;22.50;1.00
2993;DHT22;1506;48.932;9.478;2022-09-09T15:06:58;22.50;1.00
2993;DHT22;1506;48.932;9.478;2022-09-09T15:09:25;22.50;1.00
2993;DHT22;1506;48.932;9.478;2022-09-09T15:11:52;22.40;1.00
2993;DHT22;1506;48.932;9.478;2022-09-09T15:14:19;22.50;1.00
2993;DHT22;1506;48.932;9.478;2022-09-09T15:16:50;22.70;1.00
2993;DHT22;1506;48.932;9.478;2022-09-09T15:19:17;22.70;1.00
2993;DHT22;1506;48.932;9.478;2022-09-09T15:21:44;22.60;1.00
2993;DHT22;1506;48.932;9.478;2022-09-09T15:24:11;22.60;1.00
2993;DHT22;1506;48.932;9.478;2022-09-09T15:26:40;22.50;1.00
2993;DHT22;1506;48.932;9.478;2022-09-09T15:29:08;22.40;1.00
2993;DHT22;1506;48.932;9.478;2022-09-09T15:31:35;22.30;1.00
2993;DHT22;1506;48.932;9.478;2022-09-09T15:34:05;22.20;1.00
2993;DHT22;1506;48.932;9.478;2022-09-09T15:36:38;22.20;1.00
2993;DHT22;1506;48.932;9.478;2022-09-09T15:39:11;22.10;1.00
2993;DHT22;1506;48.932;9.478;2022-09-09T15:41:46;21.90;1.00
2993;DHT22;1506;48.932;9.478;2022-09-09T15:44:15;22.00;1.00
2993;DHT22;1506;48.932;9.478;2022-09-09T15:46:44;21.90;1.00
2993;DHT22;1506;48.932;9.478;2022-09-09T15:49:22;21.90;1.00
2993;DHT22;1506;48.932;9.478;2022-09-09T15:51:56;22.00;1.00
2993;DHT22;1506;48.932;9.478;2022-09-09T15:54:25;22.00;1.00
2993;DHT22;1506;48.932;9.478;2022-09-09T15:56:58;21.90;1.00
2993;DHT22;1506;48.932;9.478;2022-09-09T15:59:28;21.80;1.00
2993;DHT22;1506;48.932;9.478;2022-09-09T16:01:56;21.70;1.00
2993;DHT22;1506;48.932;9.478;2022-09-09T16:04:24;21.80;1.00
2993;DHT22;1506;48.932;9.478;2022-09-09T16:06:57;21.80;1.00
2993;DHT22;1506;48.932;9.478;2022-09-09T16:09:29;21.70;1.00
2993;DHT22;1506;48.932;9.478;2022-09-09T16:11:58;21.70;1.00
2993;DHT22;1506;48.932;9.478;2022-09-09T16:14:28;21.50;1.00
2993;DHT22;1506;48.932;9.478;2022-09-09T16:17:00;21.40;1.00
2993;DHT22;1506;48.932;9.478;2022-09-09T16:19:27;21.30;1.00
2993;DHT22;1506;48.932;9.478;2022-09-09T16:21:54;21.20;1.00
2993;DHT22;1506;48.932;9.478;2022-09-09T16:24:21;21.10;1.00
2993;DHT22;1506;48.932;9.478;2022-09-09T16:26:50;21.00;1.00
2993;DHT22;1506;48.932;9.478;2022-09-09T16:29:22;21.00;8.20
2993;DHT22;1506;48.932;9.478;2022-09-09T16:31:50;20.90;1.00
2993;DHT22;1506;48.932;9.478;2022-09-09T16:34:17;20.90;11.10
2993;DHT22;1506;48.932;9.478;2022-09-09T16:36:46;20.80;16.70
2993;DHT22;1506;48.932;9.478;2022-09-09T16:39:16;20.80;2.20
2993;DHT22;1506;48.932;9.478;2022-09-09T16:41:46;20.80;1.00
2993;DHT22;1506;48.932;9.478;2022-09-09T16:44:15;20.80;1.00
2993;DHT22;1506;48.932;9.478;2022-09-09T16:46:45;20.70;1.20
2993;DHT22;1506;48.932;9.478;2022-09-09T16:49:15;20.60;19.40
2993;DHT22;1506;48.932;9.478;2022-09-09T16:51:50;20.60;15.00
2993;DHT22;1506;48.932;9.478;2022-09-09T16:54:19;20.20;13.40
2993;DHT22;1506;48.932;9.478;2022-09-09T16:56:48;20.00;34.20
2993;DHT22;1506;48.932;9.478;2022-09-09T16:59:17;19.70;23.30
2993;DHT22;1506;48.932;9.478;2022-09-09T17:01:47;19.20;12.40
2993;DHT22;1506;48.932;9.478;2022-09-09T17:04:17;18.90;31.70
2993;DHT22;1506;48.932;9.478;2022-09-09T17:06:52;18.60;15.40
2993;DHT22;1506;48.932;9.478;2022-09-09T17:09:22;18.50;30.00
2993;DHT22;1506;48.932;9.478;2022-09-09T17:11:49;18.30;32.60
2993;DHT22;1506;48.932;9.478;2022-09-09T17:14:20;18.30;50.90
2993;DHT22;1506;48.932;9.478;2022-09-09T17:16:47;18.30;99.90
2993;DHT22;1506;48.932;9.478;2022-09-09T17:19:15;18.20;99.90
2993;DHT22;1506;48.932;9.478;2022-09-09T17:21:42;18.10;99.90
2993;DHT22;1506;48.932;9.478;2022-09-09T17:24:29;18.00;1.00
2993;DHT22;1506;48.932;9.478;2022-09-09T17:26:57;17.80;1.00
2993;DHT22;1506;48.932;9.478;2022-09-09T17:29:24;17.70;1.00
2993;DHT22;1506;48.932;9.478;2022-09-09T17:31:52;17.50;99.90
2993;DHT22;1506;48.932;9.478;2022-09-09T17:34:20;17.50;1.00
2993;DHT22;1506;48.932;9.478;2022-09-09T17:36:47;17.40;99.90
2993;DHT22;1506;48.932;9.478;2022-09-09T17:39:14;17.30;1.00
2993;DHT22;1506;48.932;9.478;2022-09-09T17:41:41;17.20;1.00
2993;DHT22;1506;48.932;9.478;2022-09-09T17:44:08;17.10;1.00
2993;DHT22;1506;48.932;9.478;2022-09-09T17:46:41;17.10;23.20
2993;DHT22;1506;48.932;9.478;2022-09-09T17:49:11;16.90;1.00
2993;DHT22;1506;48.932;9.478;2022-09-09T17:51:42;16.80;1.00
2993;DHT22;1506;48.932;9.478;2022-09-09T17:54:13;16.70;99.90
2993;DHT22;1506;48.932;9.478;2022-09-09T17:56:44;16.60;1.00
2993;DHT22;1506;48.932;9.478;2022-09-09T17:59:13;16.50;99.90
2993;DHT22;1506;48.932;9.478;2022-09-09T18:01:43;16.40;99.90
2993;DHT22;1506;48.932;9.478;2022-09-09T18:04:13;16.40;1.00
2993;DHT22;1506;48.932;9.478;2022-09-09T18:06:43;16.40;99.90
2993;DHT22;1506;48.932;9.478;2022-09-09T18:09:17;16.30;1.00
2993;DHT22;1506;48.932;9.478;2022-09-09T18:11:48;16.30;99.90
2993;DHT22;1506;48.932;9.478;2022-09-09T18:14:18;16.30;1.00
2993;DHT22;1506;48.932;9.478;2022-09-09T18:16:47;16.20;1.00
2993;DHT22;1506;48.932;9.478;2022-09-09T18:19:17;16.10;1.00
2993;DHT22;1506;48.932;9.478;2022-09-09T18:24:16;15.70;99.90
2993;DHT22;1506;48.932;9.478;2022-09-09T18:31:41;15.20;1.00
2993;DHT22;1506;48.932;9.478;2022-09-09T18:34:10;15.10;1.00
2993;DHT22;1506;48.932;9.478;2022-09-09T18:39:16;15.10;1.00
2993;DHT22;1506;48.932;9.478;2022-09-09T18:41:51;15.00;1.00
2993;DHT22;1506;48.932;9.478;2022-09-09T18:44:23;15.00;1.00
2993;DHT22;1506;48.932;9.478;2022-09-09T18:46:52;15.10;1.00
2993;DHT22;1506;48.932;9.478;2022-09-09T18:49:21;15.20;12.50
2993;DHT22;1506;48.932;9.478;2022-09-09T18:54:23;15.50;1.00
2993;DHT22;1506;48.932;9.478;2022-09-09T18:56:51;15.60;1.00
2993;DHT22;1506;48.932;9.478;2022-09-09T18:59:22;15.70;2.30
2993;DHT22;1506;48.932;9.478;2022-09-09T19:01:51;15.70;1.00
2993;DHT22;1506;48.932;9.478;2022-09-09T19:04:20;15.70;1.00
2993;DHT22;1506;48.932;9.478;2022-09-09T19:06:49;15.60;1.00
2993;DHT22;1506;48.932;9.478;2022-09-09T19:09:27;15.40;1.00
2993;DHT22;1506;48.932;9.478;2022-09-09T19:11:59;15.30;1.00
2993;DHT22;1506;48.932;9.478;2022-09-09T19:16:54;15.00;69.30
2993;DHT22;1506;48.932;9.478;2022-09-09T19:19:27;14.70;99.90
2993;DHT22;1506;48.932;9.478;2022-09-09T19:21:56;14.60;99.90
2993;DHT22;1506;48.932;9.478;2022-09-09T19:24:28;14.60;99.90
2993;DHT22;1506;48.932;9.478;2022-09-09T19:26:59;14.60;99.90
2993;DHT22;1506;48.932;9.478;2022-09-09T19:29:30;14.60;99.90
2993;DHT22;1506;48.932;9.478;2022-09-09T19:31:59;14.40;99.90
2993;DHT22;1506;48.932;9.478;2022-09-09T19:34:48;14.50;99.90
2993;DHT22;1506;48.932;9.478;2022-09-09T19:37:15;14.60;99.90
2993;DHT22;1506;48.932;9.478;2022-09-09T19:39:45;14.70;99.90
2993;DHT22;1506;48.932;9.478;2022-09-09T19:42:12;14.60;98.50
2993;DHT22;1506;48.932;9.478;2022-09-09T19:44:39;14.50;99.90
2993;DHT22;1506;48.932;9.478;2022-09-09T19:47:07;14.40;99.90
2993;DHT22;1506;48.932;9.478;2022-09-09T19:49:34;14.40;99.90
2993;DHT22;1506;48.932;9.478;2022-09-09T19:52:03;14.30;99.90
2993;DHT22;1506;48.932;9.478;2022-09-09T19:54:32;14.30;99.90
2993;DHT22;1506;48.932;9.478;2022-09-09T19:56:58;14.30;99.90
2993;DHT22;1506;48.932;9.478;2022-09-09T19:59:26;14.30;99.90
2993;DHT22;1506;48.932;9.478;2022-09-09T20:01:54;14.30;99.90
2993;DHT22;1506;48.932;9.478;2022-09-09T20:04:22;14.30;99.90
2993;DHT22;1506;48.932;9.478;2022-09-09T20:06:49;14.50;99.90
2993;DHT22;1506;48.932;9.478;2022-09-09T20:09:18;14.60;99.90
2993;DHT22;1506;48.932;9.478;2022-09-09T20:11:46;14.70;99.90
2993;DHT22;1506;48.932;9.478;2022-09-09T20:14:14;14.80;99.90
2993;DHT22;1506;48.932;9.478;2022-09-09T20:16:42;14.50;99.90
2993;DHT22;1506;48.932;9.478;2022-09-09T20:19:12;14.40;99.90
2993;DHT22;1506;48.932;9.478;2022-09-09T20:21:44;14.40;99.90
2993;DHT22;1506;48.932;9.478;2022-09-09T20:24:18;14.40;99.90
2993;DHT22;1506;48.932;9.478;2022-09-09T20:26:46;14.40;99.90
2993;DHT22;1506;48.932;9.478;2022-09-09T20:29:16;14.40;99.90
2993;DHT22;1506;48.932;9.478;2022-09-09T20:31:45;14.40;99.90
2993;DHT22;1506;48.932;9.478;2022-09-09T20:34:15;14.50;99.90
2993;DHT22;1506;48.932;9.478;2022-09-09T20:36:44;14.50;99.90
2993;DHT22;1506;48.932;9.478;2022-09-09T20:39:17;14.60;99.90
2993;DHT22;1506;48.932;9.478;2022-09-09T20:41:48;14.50;99.90
2993;DHT22;1506;48.932;9.478;2022-09-09T20:44:18;14.60;99.90
2993;DHT22;1506;48.932;9.478;2022-09-09T20:46:49;14.70;99.90
2993;DHT22;1506;48.932;9.478;2022-09-09T20:49:19;14.70;99.90
2993;DHT22;1506;48.932;9.478;2022-09-09T20:51:48;14.70;99.90
2993;DHT22;1506;48.932;9.478;2022-09-09T20:54:24;14.70;99.90
2993;DHT22;1506;48.932;9.478;2022-09-09T20:56:52;14.80;99.90
2993;DHT22;1506;48.932;9.478;2022-09-09T20:59:25;14.80;99.90
2993;DHT22;1506;48.932;9.478;2022-09-09T21:01:53;14.70;99.90
2993;DHT22;1506;48.932;9.478;2022-09-09T21:04:23;14.70;97.70
2993;DHT22;1506;48.932;9.478;2022-09-09T21:06:51;14.60;99.90
2993;DHT22;1506;48.932;9.478;2022-09-09T21:09:18;14.60;99.90
2993;DHT22;1506;48.932;9.478;2022-09-09T21:11:48;14.50;99.90
2993;DHT22;1506;48.932;9.478;2022-09-09T21:14:15;14.60;99.90
2993;DHT22;1506;48.932;9.478;2022-09-09T21:16:42;14.60;99.90
2993;DHT22;1506;48.932;9.478;2022-09-09T21:19:09;14.60;99.90
2993;DHT22;1506;48.932;9.478;2022-09-09T21:21:36;14.60;99.90
2993;DHT22;1506;48.932;9.478;2022-09-09T21:24:03;14.60;99.90
2993;DHT22;1506;48.932;9.478;2022-09-09T21:26:30;14.60;99.90
2993;DHT22;1506;48.932;9.478;2022-09-09T21:28:57;14.60;85.30
2993;DHT22;1506;48.932;9.478;2022-09-09T21:31:24;14.50;97.50
2993;DHT22;1506;48.932;9.478;2022-09-09T21:33:55;14.40;99.90
2993;DHT22;1506;48.932;9.478;2022-09-09T21:36:23;14.30;99.90
2993;DHT22;1506;48.932;9.478;2022-09-09T21:38:50;14.30;99.90
2993;DHT22;1506;48.932;9.478;2022-09-09T21:41:17;14.20;99.90
2993;DHT22;1506;48.932;9.478;2022-09-09T21:43:45;14.20;99.90
2993;DHT22;1506;48.932;9.478;2022-09-09T21:46:18;14.30;99.90
2993;DHT22;1506;48.932;9.478;2022-09-09T21:48:45;14.20;99.90
2993;DHT22;1506;48.932;9.478;2022-09-09T21:51:15;14.30;99.90
2993;DHT22;1506;48.932;9.478;2022-09-09T21:53:42;14.30;99.90
2993;DHT22;1506;48.932;9.478;2022-09-09T21:56:12;14.30;99.90
2993;DHT22;1506;48.932;9.478;2022-09-09T21:58:40;14.30;99.90
2993;DHT22;1506;48.932;9.478;2022-09-09T22:03:40;13.90;99.90
2993;DHT22;1506;48.932;9.478;2022-09-09T22:06:13;13.80;99.90
2993;DHT22;1506;48.932;9.478;2022-09-09T22:08:42;13.80;99.90
2993;DHT22;1506;48.932;9.478;2022-09-09T22:11:18;13.90;99.90
2993;DHT22;1506;48.932;9.478;2022-09-09T22:13:48;13.90;99.90
2993;DHT22;1506;48.932;9.478;2022-09-09T22:16:17;13.90;99.90
2993;DHT22;1506;48.932;9.478;2022-09-09T22:18:51;13.80;99.90